Nebo, Virginia
Current Conditions -  °F | °C
As of 5:55 PM on Friday 28 Nov 2014 (Local Time) from KMKJ Reporting Station
Overcast Overcast  
Wind Chill: 24°   Ceiling: 11000
Heat Index: 30°   Visibility: 10mi
Dew Point: 21°   Wind: 6mph
Humidity: 70%   Direction: 260°W
Pressure: 30.25"   Gusts: NA
Location:  37.0101°N, 81.365°W
Report Text: KMKJ 282255Z AUTO 26005KT 10SM OVC110 M01/M06 A3025 RMK AO2 T10121060
Loading
Personal Weather Stations






























Interactive Weather Map New forecast layout! Learn more

10-Day Weather Forecast

Advertisements
Track Severe Weather on mobile